الصفحة الرئيسية
METAR-TAF:

METAR-TAF

مطار :

مطار الخرطوم الدولي

الخرطوم, السودان

دائرة عرض: 15-36N, خط طول: 032-33E, ارتفاع: 382 متر

مراقبة الطقس الحالي

تاريخ ووقت الإصدار 31 دقيقة قبل الساعة 23:00UTC
ريح 4 عقدة من الجنوب
درجة الحرارة 30°درجة مئوية
الرطوبة 40%
ضغط 1011 hPa
الرؤية 10 كم أو أكثر
الغيوم لا تقل 1500 م ولا وجود لمزنة ركامية السحاب الأسود

METAR: HSSS 202300Z 18004KT CAVOK 30/15 Q1011 NOSIG

زمن: 02:31 (23:31 UTC)

توقعات

تاريخ ووقت الإصدار 6ساعات و 31 دقيقة قبل الساعة 17:00UTC
التوقعات صالحة من20 الساعة 18 UTC إلى 21 الساعة 24 UTC
ريح 5 عقدة من الجنوب/الجنوب الغربي تتزايد حتى 15 عقدة
الرؤية 10 كم أو أكثر
الغيوم لا تقل 1500 م ولا وجود لمزنة ركامية السحاب الأسود

TAF: HSSS 201700Z 2018/2124 20005G15KT CAVOK

أرصاد الطقس والتوقعات من أكثر من 4000 مطار (تقارير الطقس للمطار METAR والتنبؤ بالطقس بالمطارTAF).

المحطات المتاحة هي النقط الصفراء والحمراء على الخريطة.

حرك المؤشر فوق النقطة لمعرفة اسم المحطة.

ثم انقر لمعرفة أرصاد وتوقعات الطقس.

لتغيير الخارطة: اضغط على الأزرار الخضراء مع رمز الصليب الأسود للتكبير. على الزر الأخضر مع شرطة للتصغير، أو على الأسهم الخضراء للخرائط المجاورة.


METAR-TAF: